createdAt,value
2023-02-08T00:00:00.694Z,21.63
2023-02-08T00:01:08.634Z,21.55
2023-02-08T00:02:10.834Z,22.13
2023-02-08T00:03:14.190Z,24.15
2023-02-08T00:04:16.214Z,19.95
2023-02-08T00:05:20.102Z,22.63
2023-02-08T00:06:23.693Z,24.90
2023-02-08T00:07:26.872Z,21.63
2023-02-08T00:08:29.132Z,25.42
2023-02-08T00:09:32.460Z,21.67
2023-02-08T00:10:34.919Z,18.63
2023-02-08T00:11:38.016Z,18.55
2023-02-08T00:12:41.280Z,19.67
2023-02-08T00:13:43.527Z,20.60
2023-02-08T00:14:46.677Z,21.08
2023-02-08T00:15:49.073Z,22.90
2023-02-08T00:16:52.452Z,16.88
2023-02-08T00:17:54.510Z,21.13
2023-02-08T00:18:57.654Z,21.55
2023-02-08T00:19:59.788Z,28.25
2023-02-08T00:21:08.035Z,22.83
2023-02-08T00:22:12.242Z,22.13
2023-02-08T00:23:19.618Z,21.60
2023-02-08T00:24:22.321Z,22.48
2023-02-08T00:25:28.347Z,24.55
2023-02-08T00:26:33.711Z,21.67
2023-02-08T00:27:39.215Z,21.75
2023-02-08T00:28:45.217Z,19.27
2023-02-08T00:29:48.363Z,22.88
2023-02-08T00:30:50.588Z,18.35
2023-02-08T00:31:53.991Z,26.77
2023-02-08T00:32:56.172Z,24.42
2023-02-08T00:33:59.266Z,22.75
2023-02-08T00:35:01.716Z,19.63
2023-02-08T00:36:07.948Z,20.45
2023-02-08T00:37:11.507Z,19.50
2023-02-08T00:38:14.672Z,18.50
2023-02-08T00:39:16.790Z,21.92
2023-02-08T00:40:20.097Z,23.40
2023-02-08T00:41:22.288Z,25.27
2023-02-08T00:42:26.805Z,22.75
2023-02-08T00:43:29.133Z,20.65
2023-02-08T00:44:34.535Z,22.45
2023-02-08T00:45:36.626Z,23.65
2023-02-08T00:46:39.968Z,22.67
2023-02-08T00:47:42.077Z,23.67
2023-02-08T00:48:45.280Z,26.05
2023-02-08T00:49:47.402Z,19.15
2023-02-08T00:50:59.668Z,23.17
2023-02-08T00:52:02.774Z,20.00
2023-02-08T00:53:06.320Z,21.95
2023-02-08T00:54:15.570Z,28.50
2023-02-08T00:55:17.794Z,20.33
2023-02-08T00:56:21.020Z,23.58
2023-02-08T00:57:23.219Z,26.48
2023-02-08T00:58:26.358Z,21.00
2023-02-08T00:59:28.462Z,19.45
2023-02-08T01:00:31.670Z,22.92
2023-02-08T01:01:35.216Z,22.02
2023-02-08T01:02:38.587Z,20.45
2023-02-08T01:03:43.238Z,24.65
2023-02-08T01:04:45.301Z,17.58
2023-02-08T01:05:49.553Z,23.70
2023-02-08T01:06:51.629Z,22.02
2023-02-08T01:07:54.813Z,25.45
2023-02-08T01:09:00.034Z,21.60
2023-02-08T01:10:03.116Z,19.92
2023-02-08T01:11:07.779Z,20.98
2023-02-08T01:12:11.261Z,20.90
2023-02-08T01:13:14.925Z,20.90
2023-02-08T01:14:18.343Z,20.40
2023-02-08T01:15:20.440Z,22.00
2023-02-08T01:16:25.360Z,20.30
2023-02-08T01:17:27.960Z,22.27
2023-02-08T01:18:31.179Z,24.90
2023-02-08T01:19:33.705Z,19.42
2023-02-08T01:20:40.033Z,20.27
2023-02-08T01:21:44.295Z,20.63
2023-02-08T01:22:47.480Z,19.38
2023-02-08T01:23:50.147Z,20.13
2023-02-08T01:24:54.988Z,21.33
2023-02-08T01:25:57.096Z,20.42
2023-02-08T01:27:00.154Z,20.20
2023-02-08T01:28:02.188Z,18.73
2023-02-08T01:29:05.900Z,20.67
2023-02-08T01:30:09.378Z,22.60
2023-02-08T01:31:14.993Z,19.33
2023-02-08T01:32:17.102Z,20.50
2023-02-08T01:33:20.159Z,19.30
2023-02-08T01:34:22.343Z,20.45
2023-02-08T01:35:25.489Z,20.10
2023-02-08T01:36:28.531Z,18.55
2023-02-08T01:37:31.723Z,17.27
2023-02-08T01:38:34.118Z,20.73
2023-02-08T01:39:37.232Z,21.55
2023-02-08T01:40:40.997Z,19.50
2023-02-08T01:41:47.185Z,19.83
2023-02-08T01:42:50.377Z,22.00
2023-02-08T01:44:30.474Z,19.45
2023-02-08T01:45:33.387Z,19.00
2023-02-08T01:46:38.727Z,19.48
2023-02-08T01:47:41.427Z,21.23
2023-02-08T01:48:44.506Z,21.25
2023-02-08T01:49:46.613Z,22.17
2023-02-08T01:50:56.634Z,21.52
2023-02-08T01:52:02.529Z,22.42
2023-02-08T01:53:06.161Z,21.10
2023-02-08T01:54:11.038Z,20.42
2023-02-08T01:55:17.437Z,20.80
2023-02-08T01:56:26.482Z,18.80
2023-02-08T01:57:30.854Z,20.73
2023-02-08T01:58:36.798Z,20.50
2023-02-08T01:59:43.025Z,19.65
2023-02-08T02:00:45.748Z,19.50
2023-02-08T02:01:52.412Z,21.10
2023-02-08T02:02:57.665Z,20.20
2023-02-08T02:04:02.950Z,20.77
2023-02-08T02:05:06.264Z,21.58
2023-02-08T02:06:12.729Z,23.00
2023-02-08T02:07:16.024Z,20.63
2023-02-08T02:08:19.144Z,25.17
2023-02-08T02:09:27.990Z,21.83
2023-02-08T02:10:33.582Z,21.85
2023-02-08T02:11:37.586Z,23.38
2023-02-08T02:12:42.513Z,20.92
2023-02-08T02:13:44.967Z,20.25
2023-02-08T02:14:48.792Z,25.33
2023-02-08T02:15:51.530Z,24.23
2023-02-08T02:16:54.721Z,27.10
2023-02-08T02:17:57.039Z,20.65
2023-02-08T02:19:00.108Z,21.00
2023-02-08T02:20:09.786Z,26.92
2023-02-08T02:21:27.044Z,23.55
2023-02-08T02:23:01.012Z,22.15
2023-02-08T02:24:39.084Z,22.90
2023-02-08T02:26:30.110Z,20.52
2023-02-08T02:27:48.788Z,22.45
2023-02-08T02:29:26.895Z,21.60
2023-02-08T02:30:50.108Z,21.10
2023-02-08T02:32:27.020Z,23.85
2023-02-08T02:33:49.688Z,23.77
2023-02-08T02:34:57.499Z,20.90
2023-02-08T02:36:05.239Z,21.63
2023-02-08T02:37:20.181Z,21.35
2023-02-08T02:38:33.788Z,20.52
2023-02-08T02:39:40.591Z,22.52
2023-02-08T02:40:56.944Z,21.05
2023-02-08T02:42:29.242Z,19.58
2023-02-08T02:43:43.533Z,22.73
2023-02-08T02:44:54.957Z,25.63
2023-02-08T02:46:04.887Z,20.95
2023-02-08T02:47:14.849Z,19.45
2023-02-08T02:48:22.961Z,22.88
2023-02-08T02:49:32.918Z,24.75
2023-02-08T02:50:40.783Z,28.25
2023-02-08T02:51:50.154Z,22.02
2023-02-08T02:52:59.882Z,24.45
2023-02-08T02:54:08.420Z,21.92
2023-02-08T02:55:15.077Z,21.75
2023-02-08T02:56:22.400Z,22.20
2023-02-08T02:57:28.907Z,22.95
2023-02-08T02:58:33.713Z,19.08
2023-02-08T02:59:37.482Z,22.73
2023-02-08T03:00:41.082Z,24.20
2023-02-08T03:01:45.146Z,24.55
2023-02-08T03:02:49.825Z,20.55
2023-02-08T03:03:52.618Z,23.10
2023-02-08T03:04:56.826Z,21.25
2023-02-08T03:06:03.319Z,22.17
2023-02-08T03:07:14.887Z,21.30
2023-02-08T03:08:49.230Z,24.20
2023-02-08T03:10:05.571Z,21.08
2023-02-08T03:11:16.331Z,23.85
2023-02-08T03:12:32.665Z,21.63
2023-02-08T03:13:50.117Z,19.55
2023-02-08T03:14:59.900Z,19.67
2023-02-08T03:16:15.491Z,21.70
2023-02-08T03:17:34.389Z,20.90
2023-02-08T03:18:50.927Z,22.35
2023-02-08T03:20:04.263Z,25.90
2023-02-08T03:21:12.010Z,22.17
2023-02-08T03:22:18.093Z,22.73
2023-02-08T03:23:23.009Z,21.58
2023-02-08T03:24:30.158Z,23.73
2023-02-08T03:25:40.129Z,23.20
2023-02-08T03:26:51.597Z,21.55
2023-02-08T03:28:02.903Z,22.55
2023-02-08T03:29:09.971Z,23.27
2023-02-08T03:30:18.546Z,22.48
2023-02-08T03:31:28.201Z,23.80
2023-02-08T03:32:40.134Z,25.38
2023-02-08T03:33:52.715Z,26.85
2023-02-08T03:35:00.518Z,23.48
2023-02-08T03:36:08.948Z,22.50
2023-02-08T03:37:16.420Z,20.20
2023-02-08T03:38:26.206Z,22.83
2023-02-08T03:39:30.197Z,23.35
2023-02-08T03:40:38.002Z,20.75
2023-02-08T03:41:44.395Z,24.63
2023-02-08T03:42:49.083Z,23.30
2023-02-08T03:43:58.137Z,23.00
2023-02-08T03:45:03.712Z,23.08
2023-02-08T03:46:10.994Z,19.83
2023-02-08T03:47:18.147Z,22.27
2023-02-08T03:48:23.388Z,22.85
2023-02-08T03:49:32.478Z,19.08
2023-02-08T03:50:38.906Z,20.13
2023-02-08T03:51:44.173Z,21.60
2023-02-08T03:52:47.959Z,27.60
2023-02-08T03:53:54.614Z,24.42
2023-02-08T03:55:01.748Z,27.85
2023-02-08T03:56:08.658Z,24.63
2023-02-08T03:57:16.866Z,24.80
2023-02-08T03:58:25.034Z,25.05
2023-02-08T03:59:29.386Z,24.00
2023-02-08T04:00:35.376Z,23.60
2023-02-08T04:01:42.934Z,25.30
2023-02-08T04:02:53.181Z,19.27
2023-02-08T04:03:56.388Z,23.05
2023-02-08T04:05:03.085Z,20.08
2023-02-08T04:06:05.766Z,22.15
2023-02-08T04:07:09.002Z,21.48
2023-02-08T04:08:11.200Z,25.90
2023-02-08T04:09:14.478Z,24.13
2023-02-08T04:10:17.022Z,26.38
2023-02-08T04:11:20.168Z,32.67
2023-02-08T04:12:22.441Z,25.55
2023-02-08T04:13:25.727Z,25.67
2023-02-08T04:14:27.754Z,22.27
2023-02-08T04:15:30.855Z,22.35
2023-02-08T04:16:32.863Z,24.27
2023-02-08T04:17:35.932Z,25.55
2023-02-08T04:18:38.122Z,21.27
2023-02-08T04:19:41.349Z,24.58
2023-02-08T04:20:44.912Z,23.05
2023-02-08T04:21:48.337Z,25.88
2023-02-08T04:22:50.462Z,23.05
2023-02-08T04:23:53.570Z,23.70
2023-02-08T04:24:55.654Z,23.83
2023-02-08T04:25:58.737Z,24.15
2023-02-08T04:27:00.837Z,25.02
2023-02-08T04:28:04.087Z,25.17
2023-02-08T04:29:06.190Z,26.30
2023-02-08T04:30:10.110Z,27.15
2023-02-08T04:31:12.324Z,23.92
2023-02-08T04:32:15.451Z,29.30
2023-02-08T04:33:17.618Z,22.98
2023-02-08T04:34:20.960Z,23.02
2023-02-08T04:35:23.248Z,26.27
2023-02-08T04:36:28.156Z,24.65
2023-02-08T04:37:30.283Z,25.13
2023-02-08T04:38:33.363Z,21.40
2023-02-08T04:39:35.475Z,25.00
2023-02-08T04:40:38.685Z,23.55
2023-02-08T04:41:40.824Z,21.63
2023-02-08T04:42:44.038Z,24.13
2023-02-08T04:43:46.153Z,24.88
2023-02-08T04:44:49.292Z,26.27
2023-02-08T04:45:52.627Z,23.83
2023-02-08T04:46:55.183Z,22.88
2023-02-08T04:47:59.243Z,25.23
2023-02-08T04:49:01.370Z,26.58
2023-02-08T04:50:05.501Z,22.70
2023-02-08T04:51:07.607Z,22.88
2023-02-08T04:52:12.147Z,23.15
2023-02-08T04:53:14.344Z,27.50
2023-02-08T04:54:18.339Z,25.48
2023-02-08T04:55:20.441Z,25.88
2023-02-08T04:56:23.975Z,22.92
2023-02-08T04:57:26.076Z,28.45
2023-02-08T04:58:29.351Z,27.83
2023-02-08T04:59:31.473Z,24.38
2023-02-08T05:00:34.676Z,26.33
2023-02-08T05:01:36.834Z,29.65
2023-02-08T05:02:40.717Z,31.20
2023-02-08T05:03:42.842Z,25.45
2023-02-08T05:04:46.137Z,26.80
2023-02-08T05:05:57.609Z,25.17
2023-02-08T05:07:00.678Z,27.15
2023-02-08T05:08:04.482Z,30.20
2023-02-08T05:09:09.867Z,26.25
2023-02-08T05:10:12.018Z,24.40
2023-02-08T05:11:21.144Z,26.20
2023-02-08T05:12:23.202Z,33.40
2023-02-08T05:13:26.343Z,28.92
2023-02-08T05:14:28.453Z,30.15
2023-02-08T05:15:31.526Z,25.27
2023-02-08T05:16:33.743Z,29.50
2023-02-08T05:17:36.950Z,27.38
2023-02-08T05:18:39.081Z,27.25
2023-02-08T05:19:42.384Z,22.85
2023-02-08T05:20:45.152Z,28.70
2023-02-08T05:21:52.446Z,26.85
2023-02-08T05:22:54.510Z,28.08
2023-02-08T05:23:59.064Z,27.30
2023-02-08T05:25:02.234Z,26.88
2023-02-08T05:26:06.816Z,26.70
2023-02-08T05:27:09.881Z,26.90
2023-02-08T05:28:11.999Z,29.70
2023-02-08T05:29:15.575Z,27.92
2023-02-08T05:30:17.799Z,27.90
2023-02-08T05:31:23.291Z,27.73
2023-02-08T05:32:25.314Z,28.52
2023-02-08T05:33:28.320Z,31.45
2023-02-08T05:34:30.375Z,26.13
2023-02-08T05:35:33.424Z,28.58
2023-02-08T05:36:35.505Z,30.10
2023-02-08T05:37:38.626Z,30.00
2023-02-08T05:38:40.879Z,27.05
2023-02-08T05:39:45.520Z,26.55
2023-02-08T05:40:47.595Z,28.20
2023-02-08T05:41:50.660Z,32.10
2023-02-08T05:42:54.137Z,33.13
2023-02-08T05:43:57.208Z,31.05
2023-02-08T05:44:59.281Z,31.70
2023-02-08T05:46:02.458Z,30.55
2023-02-08T05:47:04.715Z,27.35
2023-02-08T05:48:08.000Z,31.73
2023-02-08T05:49:10.278Z,27.90
2023-02-08T05:50:13.352Z,28.92
2023-02-08T05:51:15.627Z,28.17
2023-02-08T05:52:18.698Z,28.55
2023-02-08T05:53:20.904Z,29.85
2023-02-08T05:54:24.158Z,31.00
2023-02-08T05:55:28.828Z,31.52
2023-02-08T05:56:32.347Z,29.25
2023-02-08T05:57:35.891Z,27.27
2023-02-08T05:58:38.069Z,33.65
2023-02-08T05:59:41.345Z,27.25
2023-02-08T06:00:44.126Z,30.00
2023-02-08T06:01:47.380Z,28.55
2023-02-08T06:02:49.543Z,27.98
2023-02-08T06:03:52.565Z,26.52
2023-02-08T06:04:54.647Z,31.48
2023-02-08T06:06:00.946Z,29.77
2023-02-08T06:07:04.077Z,32.15
2023-02-08T06:08:07.757Z,31.58
2023-02-08T06:09:09.924Z,35.25
2023-02-08T06:10:13.187Z,26.52
2023-02-08T06:11:19.237Z,32.13
2023-02-08T06:12:22.403Z,26.27
2023-02-08T06:13:24.426Z,29.65
2023-02-08T06:14:27.499Z,30.52
2023-02-08T06:15:29.553Z,32.78
2023-02-08T06:16:32.648Z,32.15
2023-02-08T06:17:34.771Z,25.58
2023-02-08T06:18:37.821Z,28.17
2023-02-08T06:19:39.956Z,31.27
2023-02-08T06:20:43.167Z,33.53
2023-02-08T06:21:45.390Z,32.78
2023-02-08T06:22:48.818Z,33.20
2023-02-08T06:23:50.995Z,28.83
2023-02-08T06:24:54.290Z,30.85
2023-02-08T06:25:57.559Z,29.17
2023-02-08T06:27:01.071Z,29.33
2023-02-08T06:28:04.824Z,32.13
2023-02-08T06:29:06.879Z,31.73
2023-02-08T06:30:11.386Z,27.85
2023-02-08T06:31:14.616Z,30.40
2023-02-08T06:32:16.794Z,30.77
2023-02-08T06:33:20.511Z,29.98
2023-02-08T06:34:22.747Z,30.80
2023-02-08T06:35:25.786Z,31.15
2023-02-08T06:36:27.888Z,34.25
2023-02-08T06:37:31.521Z,29.05
2023-02-08T06:38:33.673Z,31.08
2023-02-08T06:39:37.030Z,27.55
2023-02-08T06:40:39.830Z,33.58
2023-02-08T06:41:43.243Z,26.05
2023-02-08T06:42:48.317Z,30.27
2023-02-08T06:43:50.582Z,39.15
2023-02-08T06:44:55.730Z,32.45
2023-02-08T06:45:58.895Z,32.13
2023-02-08T06:47:01.159Z,30.88
2023-02-08T06:48:04.833Z,30.45
2023-02-08T06:49:06.976Z,27.92
2023-02-08T06:50:10.946Z,30.60
2023-02-08T06:51:13.134Z,33.45
2023-02-08T06:52:16.281Z,33.95
2023-02-08T06:53:19.381Z,37.97
2023-02-08T06:54:22.586Z,33.42
2023-02-08T06:55:24.680Z,30.55
2023-02-08T06:56:27.902Z,32.42
2023-02-08T06:57:30.067Z,32.28
2023-02-08T06:58:34.742Z,32.30
2023-02-08T06:59:37.041Z,33.13
2023-02-08T07:00:40.492Z,32.92
2023-02-08T07:01:43.840Z,30.00
2023-02-08T07:02:47.512Z,31.52
2023-02-08T07:03:50.601Z,32.20
2023-02-08T07:04:52.681Z,31.15
2023-02-08T07:06:04.509Z,31.45
2023-02-08T07:07:08.403Z,30.30
2023-02-08T07:08:11.809Z,29.85
2023-02-08T07:09:15.207Z,28.52
2023-02-08T07:10:18.743Z,25.23
2023-02-08T07:11:23.082Z,26.65
2023-02-08T07:12:26.348Z,29.88
2023-02-08T07:13:28.504Z,25.10
2023-02-08T07:14:33.681Z,26.17
2023-02-08T07:15:36.783Z,29.38
2023-02-08T07:16:38.976Z,30.95
2023-02-08T07:17:41.985Z,29.88
2023-02-08T07:18:44.107Z,27.70
2023-02-08T07:19:47.199Z,25.88
2023-02-08T07:20:49.415Z,26.73
2023-02-08T07:21:52.684Z,26.17
2023-02-08T07:22:55.940Z,27.98
2023-02-08T07:23:59.004Z,29.65
2023-02-08T07:25:02.258Z,24.55
2023-02-08T07:26:05.720Z,28.70
2023-02-08T07:27:11.618Z,30.60
2023-02-08T07:28:13.751Z,27.27
2023-02-08T07:29:16.913Z,26.13
2023-02-08T07:30:21.758Z,25.83
2023-02-08T07:31:24.789Z,24.55
2023-02-08T07:32:26.964Z,29.50
2023-02-08T07:33:30.189Z,25.33
2023-02-08T07:34:37.535Z,26.27
2023-02-08T07:35:39.958Z,25.13
2023-02-08T07:36:43.269Z,27.55
2023-02-08T07:37:46.393Z,23.20
2023-02-08T07:38:48.701Z,22.67
2023-02-08T07:39:52.055Z,23.10
2023-02-08T07:41:02.369Z,23.33
2023-02-08T07:42:06.638Z,24.20
2023-02-08T07:43:16.288Z,23.55
2023-02-08T07:44:31.249Z,23.80
2023-02-08T07:45:38.068Z,28.38
2023-02-08T07:46:43.631Z,26.38
2023-02-08T07:47:46.585Z,23.55
2023-02-08T07:48:50.340Z,28.00
2023-02-08T07:49:52.466Z,24.77
2023-02-08T07:50:55.567Z,23.85
2023-02-08T07:51:59.443Z,23.42
2023-02-08T07:53:05.085Z,23.05
2023-02-08T07:54:08.252Z,22.65
2023-02-08T07:55:11.785Z,24.27
2023-02-08T07:56:14.873Z,23.58
2023-02-08T07:57:21.312Z,23.90
2023-02-08T07:58:23.605Z,22.98
2023-02-08T07:59:26.914Z,24.13
2023-02-08T08:00:30.076Z,25.65
2023-02-08T08:01:33.689Z,26.52
2023-02-08T08:02:36.877Z,26.75
2023-02-08T08:03:38.955Z,26.95
2023-02-08T08:04:42.332Z,24.45
2023-02-08T08:05:44.377Z,26.52
2023-02-08T08:06:47.515Z,27.92
2023-02-08T08:07:50.791Z,27.50
2023-02-08T08:08:53.684Z,29.10
2023-02-08T08:09:56.906Z,26.88
2023-02-08T08:11:01.653Z,32.50
2023-02-08T08:12:05.259Z,26.20
2023-02-08T08:13:08.436Z,29.80
2023-02-08T08:14:11.467Z,24.77
2023-02-08T08:15:14.599Z,29.13
2023-02-08T08:16:16.901Z,28.00
2023-02-08T08:17:21.447Z,29.42
2023-02-08T08:18:24.570Z,26.25
2023-02-08T08:19:28.351Z,31.90
2023-02-08T08:20:31.476Z,27.30
2023-02-08T08:21:34.550Z,31.00
2023-02-08T08:22:37.621Z,27.55
2023-02-08T08:23:40.649Z,25.80
2023-02-08T08:24:43.761Z,27.83
2023-02-08T08:25:47.002Z,26.58
2023-02-08T08:26:49.057Z,25.67
2023-02-08T08:27:52.160Z,28.65
2023-02-08T08:28:55.265Z,31.30
2023-02-08T08:29:59.829Z,31.27
2023-02-08T08:31:02.047Z,28.38
2023-02-08T08:32:05.759Z,32.55
2023-02-08T08:33:09.096Z,27.88
2023-02-08T08:34:12.167Z,30.15
2023-02-08T08:35:15.674Z,27.83
2023-02-08T08:36:18.441Z,28.38
2023-02-08T08:37:21.458Z,27.58
2023-02-08T08:38:23.498Z,28.65
2023-02-08T08:39:27.329Z,28.45
2023-02-08T08:40:30.495Z,27.70
2023-02-08T08:41:33.696Z,28.20
2023-02-08T08:42:36.411Z,29.38
2023-02-08T08:43:39.440Z,25.23
2023-02-08T08:44:42.594Z,27.08
2023-02-08T08:45:45.657Z,28.90
2023-02-08T08:46:48.729Z,22.17
2023-02-08T08:47:50.874Z,25.00
2023-02-08T08:48:55.773Z,27.90
2023-02-08T08:49:57.816Z,25.55
2023-02-08T08:51:00.894Z,29.15
2023-02-08T08:52:04.016Z,26.45
2023-02-08T08:53:07.076Z,28.85
2023-02-08T08:54:10.202Z,28.27
2023-02-08T08:55:13.329Z,27.30
2023-02-08T08:56:16.370Z,25.27
2023-02-08T08:57:19.546Z,28.50
2023-02-08T08:58:22.603Z,28.65
2023-02-08T08:59:25.604Z,24.08
2023-02-08T09:00:28.765Z,27.63
2023-02-08T09:01:33.724Z,23.65
2023-02-08T09:02:37.695Z,29.80
2023-02-08T09:03:40.711Z,26.27
2023-02-08T09:04:45.145Z,25.02
2023-02-08T09:05:48.203Z,26.90
2023-02-08T09:06:51.304Z,24.95
2023-02-08T09:07:54.310Z,22.33
2023-02-08T09:08:57.430Z,47.55
2023-02-08T09:10:00.445Z,24.05
2023-02-08T09:11:07.590Z,24.95
2023-02-08T09:12:09.781Z,31.17
2023-02-08T09:13:19.153Z,27.45
2023-02-08T09:14:22.197Z,28.85
2023-02-08T09:15:25.243Z,21.60
2023-02-08T09:16:28.335Z,25.17
2023-02-08T09:17:31.402Z,22.17
2023-02-08T09:18:34.773Z,24.50
2023-02-08T09:19:37.822Z,29.15
2023-02-08T09:20:42.718Z,25.60
2023-02-08T09:21:46.151Z,25.60
2023-02-08T09:22:48.509Z,28.27
2023-02-08T09:23:51.631Z,25.55
2023-02-08T09:24:54.861Z,29.05
2023-02-08T09:25:57.897Z,27.25
2023-02-08T09:27:00.992Z,24.48
2023-02-08T09:28:04.198Z,28.85
2023-02-08T09:29:06.745Z,31.83
2023-02-08T09:30:11.228Z,33.17
2023-02-08T09:31:20.158Z,24.63
2023-02-08T09:32:23.543Z,29.05
2023-02-08T09:33:26.698Z,24.48
2023-02-08T09:34:29.886Z,26.38
2023-02-08T09:35:33.022Z,26.90
2023-02-08T09:36:39.139Z,26.55
2023-02-08T09:37:42.181Z,26.02
2023-02-08T09:38:46.111Z,26.35
2023-02-08T09:39:49.231Z,25.67
2023-02-08T09:41:00.155Z,26.58
2023-02-08T09:42:22.142Z,31.70
2023-02-08T09:43:33.905Z,24.77
2023-02-08T09:44:45.914Z,30.05
2023-02-08T09:46:00.223Z,27.63
2023-02-08T09:47:06.521Z,31.20
2023-02-08T09:48:19.397Z,25.55
2023-02-08T09:49:28.161Z,30.73
2023-02-08T09:50:35.288Z,29.27
2023-02-08T09:51:43.076Z,27.10
2023-02-08T09:52:50.966Z,31.42
2023-02-08T09:53:57.199Z,28.88
2023-02-08T09:55:02.557Z,26.35
2023-02-08T09:56:08.302Z,31.02
2023-02-08T09:57:17.727Z,28.67
2023-02-08T09:58:25.825Z,25.08
2023-02-08T09:59:32.484Z,24.35
2023-02-08T10:00:40.061Z,24.73
2023-02-08T10:01:43.381Z,25.50
2023-02-08T10:02:50.088Z,27.63
2023-02-08T10:03:57.966Z,26.52
2023-02-08T10:05:04.810Z,26.02
2023-02-08T10:06:10.909Z,24.48
2023-02-08T10:07:16.399Z,26.15
2023-02-08T10:08:19.810Z,29.00
2023-02-08T10:09:26.860Z,24.13
2023-02-08T10:10:41.688Z,26.08
2023-02-08T10:11:56.755Z,27.02
2023-02-08T10:13:13.852Z,24.85
2023-02-08T10:14:35.847Z,28.55
2023-02-08T10:15:44.898Z,26.27
2023-02-08T10:16:59.881Z,25.13
2023-02-08T10:18:25.969Z,24.05
2023-02-08T10:19:42.380Z,28.20
2023-02-08T10:20:56.149Z,31.23
2023-02-08T10:22:12.910Z,26.80
2023-02-08T10:23:42.404Z,26.95
2023-02-08T10:25:04.760Z,26.50
2023-02-08T10:26:15.478Z,22.48
2023-02-08T10:27:22.964Z,24.90
2023-02-08T10:28:40.034Z,27.88
2023-02-08T10:29:57.810Z,24.70
2023-02-08T10:31:11.638Z,28.00
2023-02-08T10:32:35.268Z,27.88
2023-02-08T10:33:47.090Z,28.50
2023-02-08T10:34:53.657Z,23.40
2023-02-08T10:35:57.290Z,27.90
2023-02-08T10:37:03.061Z,23.70
2023-02-08T10:38:29.702Z,23.10
2023-02-08T10:39:37.961Z,24.67
2023-02-08T10:40:42.597Z,22.52
2023-02-08T10:41:47.160Z,28.52
2023-02-08T10:42:57.002Z,27.55
2023-02-08T10:44:04.133Z,27.85
2023-02-08T10:45:24.398Z,21.00
2023-02-08T10:46:33.488Z,26.73
2023-02-08T10:47:45.176Z,23.30
2023-02-08T10:48:58.677Z,23.38
2023-02-08T10:50:05.774Z,24.40
2023-02-08T10:51:12.925Z,32.22
2023-02-08T10:52:16.199Z,29.48
2023-02-08T10:53:20.467Z,20.45
2023-02-08T10:54:25.046Z,21.20
2023-02-08T10:55:28.738Z,23.23
2023-02-08T10:56:42.020Z,21.67
2023-02-08T10:57:48.064Z,24.83
2023-02-08T10:58:51.232Z,22.77
2023-02-08T10:59:59.787Z,22.23
2023-02-08T11:01:03.634Z,25.70
2023-02-08T11:02:22.577Z,27.75
2023-02-08T11:03:27.766Z,26.17
2023-02-08T11:04:30.995Z,26.27
2023-02-08T11:05:35.288Z,25.17
2023-02-08T11:06:39.591Z,23.88
2023-02-08T11:07:43.153Z,26.50
2023-02-08T11:08:56.293Z,20.83
2023-02-08T11:10:22.093Z,24.58
2023-02-08T11:11:27.065Z,27.48
2023-02-08T11:12:30.543Z,26.00
2023-02-08T11:13:36.807Z,23.48
2023-02-08T11:14:47.093Z,22.35
2023-02-08T11:15:53.767Z,26.23
2023-02-08T11:16:59.155Z,29.48
2023-02-08T11:18:02.408Z,22.55
2023-02-08T11:19:08.101Z,24.25
2023-02-08T11:20:23.213Z,22.73
2023-02-08T11:21:29.496Z,25.00
2023-02-08T11:22:34.542Z,24.70
2023-02-08T11:23:41.352Z,26.95
2023-02-08T11:24:50.471Z,25.02
2023-02-08T11:25:56.637Z,24.50
2023-02-08T11:27:01.639Z,25.17
2023-02-08T11:28:06.167Z,23.20
2023-02-08T11:29:16.023Z,21.58
2023-02-08T11:30:23.608Z,20.52
2023-02-08T11:31:27.053Z,20.45
2023-02-08T11:32:30.210Z,22.35
2023-02-08T11:33:32.293Z,24.00
2023-02-08T11:34:38.877Z,21.35
2023-02-08T11:35:42.012Z,24.13
2023-02-08T11:36:48.080Z,23.85
2023-02-08T11:37:51.681Z,22.27
2023-02-08T11:38:55.524Z,21.77
2023-02-08T11:40:00.717Z,23.95
2023-02-08T11:41:15.788Z,23.92
2023-02-08T11:42:22.821Z,26.25
2023-02-08T11:43:28.186Z,25.65
2023-02-08T11:44:33.850Z,22.92
2023-02-08T11:45:37.311Z,26.58
2023-02-08T11:46:42.403Z,23.70
2023-02-08T11:47:49.672Z,25.40
2023-02-08T11:48:53.024Z,23.92
2023-02-08T11:50:00.154Z,22.88
2023-02-08T11:51:05.003Z,23.73
2023-02-08T11:52:21.086Z,26.10
2023-02-08T11:53:28.909Z,25.17
2023-02-08T11:54:41.437Z,25.02
2023-02-08T11:55:43.849Z,23.15
2023-02-08T11:57:03.167Z,24.55
2023-02-08T11:58:18.338Z,26.63
2023-02-08T11:59:24.129Z,24.85
2023-02-08T12:00:29.941Z,25.73
2023-02-08T12:01:34.806Z,25.73
2023-02-08T12:02:39.661Z,28.90
2023-02-08T12:03:43.558Z,27.80
2023-02-08T12:04:46.956Z,35.20
2023-02-08T12:06:00.250Z,30.20
2023-02-08T12:07:21.426Z,31.45
2023-02-08T12:08:32.464Z,33.58
2023-02-08T12:10:00.278Z,23.63
2023-02-08T12:11:13.694Z,23.55
2023-02-08T12:12:26.858Z,23.92
2023-02-08T12:13:50.323Z,25.08
2023-02-08T12:15:01.418Z,24.45
2023-02-08T12:16:15.796Z,25.55
2023-02-08T12:18:02.518Z,27.75
2023-02-08T12:19:24.181Z,24.70
2023-02-08T12:20:38.601Z,25.27
2023-02-08T12:21:43.705Z,25.63
2023-02-08T12:22:55.902Z,29.35
2023-02-08T12:24:03.984Z,26.50
2023-02-08T12:25:23.679Z,25.85
2023-02-08T12:26:39.664Z,30.63
2023-02-08T12:27:49.569Z,33.05
2023-02-08T12:29:07.624Z,28.45
2023-02-08T12:30:22.518Z,33.72
2023-02-08T12:31:39.114Z,28.73
2023-02-08T12:33:03.317Z,25.52
2023-02-08T12:34:16.583Z,25.85
2023-02-08T12:35:43.606Z,27.77
2023-02-08T12:37:24.429Z,30.23
2023-02-08T12:39:10.472Z,30.45
2023-02-08T12:40:58.140Z,30.83
2023-02-08T12:42:29.456Z,33.28
2023-02-08T12:43:44.332Z,30.67
2023-02-08T12:45:00.424Z,31.98
2023-02-08T12:46:32.778Z,35.55
2023-02-08T12:48:03.274Z,31.63
2023-02-08T12:49:19.181Z,34.40
2023-02-08T12:50:32.830Z,33.47
2023-02-08T12:51:45.535Z,34.60
2023-02-08T12:52:52.730Z,32.78
2023-02-08T12:53:58.699Z,33.15
2023-02-08T12:55:06.391Z,33.08
2023-02-08T12:56:16.581Z,32.08
2023-02-08T12:57:24.029Z,35.30
2023-02-08T12:58:30.730Z,31.38
2023-02-08T12:59:39.748Z,34.30
2023-02-08T13:00:44.299Z,31.13
2023-02-08T13:01:51.415Z,33.80
2023-02-08T13:03:03.071Z,30.40
2023-02-08T13:04:10.380Z,29.95
2023-02-08T13:05:17.874Z,29.42
2023-02-08T13:06:26.703Z,29.40
2023-02-08T13:07:34.550Z,30.75
2023-02-08T13:08:41.306Z,32.63
2023-02-08T13:09:51.176Z,30.13
2023-02-08T13:11:10.760Z,32.40
2023-02-08T13:12:26.882Z,29.55
2023-02-08T13:13:35.170Z,30.30
2023-02-08T13:14:44.410Z,30.65
2023-02-08T13:15:54.875Z,31.17
2023-02-08T13:17:01.931Z,27.80
2023-02-08T13:18:13.000Z,27.42
2023-02-08T13:19:32.456Z,29.92
2023-02-08T13:20:42.590Z,33.70
2023-02-08T13:21:45.944Z,29.30
2023-02-08T13:22:51.695Z,30.48
2023-02-08T13:23:54.967Z,27.98
2023-02-08T13:25:07.067Z,30.52
2023-02-08T13:26:16.233Z,34.15
2023-02-08T13:27:21.530Z,30.55
2023-02-08T13:28:25.539Z,30.73
2023-02-08T13:29:30.479Z,29.27
2023-02-08T13:30:39.952Z,24.70
2023-02-08T13:31:49.385Z,28.70
2023-02-08T13:32:53.742Z,28.35
2023-02-08T13:34:01.982Z,27.70
2023-02-08T13:36:24.217Z,27.77
2023-02-08T13:37:31.490Z,26.42
2023-02-08T13:38:37.616Z,27.25
2023-02-08T13:39:43.022Z,24.63
2023-02-08T13:40:46.517Z,24.42
2023-02-08T13:41:53.495Z,29.10
2023-02-08T13:43:02.190Z,22.63
2023-02-08T13:44:06.954Z,24.98
2023-02-08T13:45:22.990Z,29.67
2023-02-08T13:46:29.622Z,30.00
2023-02-08T13:47:38.037Z,37.70
2023-02-08T13:48:51.273Z,26.75
2023-02-08T13:49:58.518Z,23.30
2023-02-08T13:51:02.634Z,26.35
2023-02-08T13:52:05.990Z,27.05
2023-02-08T13:53:09.741Z,29.45
2023-02-08T13:54:12.989Z,29.40
2023-02-08T13:55:20.332Z,27.30
2023-02-08T13:56:41.823Z,24.30
2023-02-08T13:57:53.381Z,25.75
2023-02-08T13:59:01.054Z,24.10
2023-02-08T14:00:23.883Z,27.50
2023-02-08T14:01:28.743Z,24.52
2023-02-08T14:02:31.963Z,22.17
2023-02-08T14:03:35.459Z,24.30
2023-02-08T14:04:39.524Z,22.88
2023-02-08T14:05:50.697Z,24.80
2023-02-08T14:06:58.706Z,24.52
2023-02-08T14:08:04.907Z,25.50
2023-02-08T14:09:22.275Z,23.30
2023-02-08T14:10:37.347Z,24.98
2023-02-08T14:11:46.453Z,22.90
2023-02-08T14:12:57.981Z,28.85
2023-02-08T14:14:04.310Z,25.13
2023-02-08T14:15:23.179Z,24.73
2023-02-08T14:16:33.529Z,29.90
2023-02-08T14:17:37.410Z,24.83
2023-02-08T14:18:41.074Z,25.80